Time;durP1;ratioP1;P1;durP2;ratioP2;P2;SDS_P1;SDS_P2;PMS_P1;PMS_P2;Temp;Humidity;BMP_temperature;BMP_pressure;BME280_temperature;BME280_humidity;BME280_pressure;Samples;Min_cycle;Max_cycle;Signal;HPM_P1;HPM_P2
2023/05/24 00:00:25;;;;;;;16.98;4.97;;;;;;;;;;4976796;28;20503;-85
2023/05/24 00:02:51;;;;;;;17.92;4.90;;;;;;;;;;4976613;28;20417;-85
2023/05/24 00:05:17;;;;;;;14.32;4.57;;;;;;;;;;4976921;28;20433;-93
2023/05/24 00:07:43;;;;;;;17.65;4.82;;;;;;;;;;5011281;28;20451;-92
2023/05/24 00:10:10;;;;;;;15.45;4.80;;;;;;;;;;5018203;28;20405;-91
2023/05/24 00:12:36;;;;;;;17.17;4.82;;;;;;;;;;4990037;28;20440;-91
2023/05/24 00:15:02;;;;;;;18.75;5.05;;;;;;;;;;4988604;28;20428;-91
2023/05/24 00:17:29;;;;;;;19.38;5.40;;;;;;;;;;5013639;28;20417;-92
2023/05/24 00:19:55;;;;;;;18.50;5.05;;;;;;;;;;4977385;28;20413;-92
2023/05/24 00:22:21;;;;;;;17.20;4.70;;;;;;;;;;4993825;28;20416;-90
2023/05/24 00:24:47;;;;;;;14.68;4.90;;;;;;;;;;4979633;28;20437;-91
2023/05/24 00:27:14;;;;;;;16.00;4.68;;;;;;;;;;5003426;28;20404;-91
2023/05/24 00:29:40;;;;;;;16.63;4.88;;;;;;;;;;5003227;28;20467;-88
2023/05/24 00:32:06;;;;;;;16.60;4.30;;;;;;;;;;5009882;28;20178;-90
2023/05/24 00:34:32;;;;;;;19.58;4.90;;;;;;;;;;5014733;28;20411;-88
2023/05/24 00:36:59;;;;;;;18.25;5.00;;;;;;;;;;5002439;28;20424;-90
2023/05/24 00:39:26;;;;;;;16.67;5.00;;;;;;;;;;5004590;28;20408;-77
2023/05/24 00:41:52;;;;;;;18.55;5.22;;;;;;;;;;5004183;28;20428;-77
2023/05/24 00:44:18;;;;;;;14.57;4.55;;;;;;;;;;4999381;28;20462;-77
2023/05/24 00:46:44;;;;;;;19.47;5.03;;;;;;;;;;5015206;28;20415;-77
2023/05/24 00:49:10;;;;;;;16.52;5.00;;;;;;;;;;4998425;28;20427;-77
2023/05/24 00:51:37;;;;;;;17.80;5.28;;;;;;;;;;4994821;28;20425;-77
2023/05/24 00:54:03;;;;;;;17.47;4.50;;;;;;;;;;4981100;28;20182;-77
2023/05/24 00:56:30;;;;;;;16.08;4.93;;;;;;;;;;4997489;28;20469;-90
2023/05/24 00:58:56;;;;;;;15.88;4.90;;;;;;;;;;5014827;28;20465;-91
2023/05/24 01:01:29;;;;;;;11.83;3.83;;;;;;;;;;4998793;28;20212;-91
2023/05/24 01:03:56;;;;;;;18.23;4.97;;;;;;;;;;4996550;28;20440;-91
2023/05/24 01:06:23;;;;;;;15.65;5.00;;;;;;;;;;5014822;28;20422;-91
2023/05/24 01:08:49;;;;;;;14.57;4.85;;;;;;;;;;5016238;28;20498;-91
2023/05/24 01:11:27;;;;;;;15.83;4.60;;;;;;;;;;5015181;28;20177;-91
2023/05/24 01:14:07;;;;;;;11.70;4.03;;;;;;;;;;4995616;28;20181;-77
2023/05/24 01:16:51;;;;;;;20.87;4.60;;;;;;;;;;5021706;28;20275;-77
2023/05/24 01:19:37;;;;;;;15.03;4.47;;;;;;;;;;5022975;28;20196;-78
2023/05/24 01:22:05;;;;;;;15.87;4.43;;;;;;;;;;5016482;28;20236;-77
2023/05/24 01:24:43;;;;;;;17.48;5.00;;;;;;;;;;5004465;28;20427;-77
2023/05/24 01:27:14;;;;;;;18.50;5.30;;;;;;;;;;4997331;28;20459;-77
2023/05/24 01:29:40;;;;;;;15.97;4.70;;;;;;;;;;5013237;28;20177;-77
2023/05/24 01:32:06;;;;;;;18.23;4.90;;;;;;;;;;5008466;28;20181;-77
2023/05/24 01:34:32;;;;;;;19.40;4.80;;;;;;;;;;5002744;28;20436;-77
2023/05/24 01:36:58;;;;;;;19.95;5.40;;;;;;;;;;4987946;28;20420;-77
2023/05/24 01:39:26;;;;;;;15.98;4.97;;;;;;;;;;4987473;28;20428;-77
2023/05/24 01:42:02;;;;;;;18.50;4.77;;;;;;;;;;5002802;28;20269;-77
2023/05/24 01:44:37;;;;;;;17.98;5.50;;;;;;;;;;5002357;28;20437;-77
2023/05/24 01:47:15;;;;;;;19.17;5.27;;;;;;;;;;5004234;28;20427;-78
2023/05/24 01:49:49;;;;;;;19.00;5.10;;;;;;;;;;5003251;28;20419;-77
2023/05/24 01:52:16;;;;;;;14.63;5.07;;;;;;;;;;5002930;28;20193;-77
2023/05/24 01:54:44;;;;;;;17.92;5.57;;;;;;;;;;5007586;28;20457;-77
2023/05/24 01:57:10;;;;;;;19.60;5.00;;;;;;;;;;5004063;28;20225;-77
2023/05/24 01:59:39;;;;;;;15.65;4.93;;;;;;;;;;5003677;28;20462;-77
2023/05/24 02:02:05;;;;;;;18.52;5.10;;;;;;;;;;5003087;28;20475;-83
2023/05/24 02:04:31;;;;;;;17.03;4.80;;;;;;;;;;5009317;28;20267;-83
2023/05/24 02:06:57;;;;;;;13.80;4.20;;;;;;;;;;4989070;28;20260;-84
2023/05/24 02:09:23;;;;;;;16.73;4.80;;;;;;;;;;5002622;28;20273;-83
2023/05/24 02:11:49;;;;;;;17.70;4.83;;;;;;;;;;5000386;28;20415;-83
2023/05/24 02:14:18;;;;;;;16.83;4.90;;;;;;;;;;4985905;28;20442;-84
2023/05/24 02:16:45;;;;;;;17.45;5.20;;;;;;;;;;5004140;28;20494;-83
2023/05/24 02:19:12;;;;;;;15.93;5.20;;;;;;;;;;4983705;28;20438;-83
2023/05/24 02:21:38;;;;;;;15.38;4.70;;;;;;;;;;5021803;28;20423;-84
2023/05/24 02:24:06;;;;;;;19.73;5.60;;;;;;;;;;5001510;28;20436;-84
2023/05/24 02:26:32;;;;;;;13.63;4.33;;;;;;;;;;5004451;28;20209;-84
2023/05/24 02:28:58;;;;;;;17.80;5.10;;;;;;;;;;5010857;28;20444;-83
2023/05/24 02:31:27;;;;;;;16.27;5.57;;;;;;;;;;5004939;28;20403;-83
2023/05/24 02:33:53;;;;;;;16.88;5.20;;;;;;;;;;5002788;28;20408;-83
2023/05/24 02:36:22;;;;;;;16.98;5.25;;;;;;;;;;4986374;28;20420;-77
2023/05/24 02:38:48;;;;;;;18.92;5.80;;;;;;;;;;4989450;28;20411;-77
2023/05/24 02:41:16;;;;;;;17.88;5.25;;;;;;;;;;4993542;28;20460;-77
2023/05/24 02:43:43;;;;;;;13.83;4.30;;;;;;;;;;4989797;28;20201;-77
2023/05/24 02:46:09;;;;;;;20.73;5.70;;;;;;;;;;5011493;28;20435;-77
2023/05/24 02:48:35;;;;;;;17.53;4.80;;;;;;;;;;4993700;28;20213;-77
2023/05/24 02:51:02;;;;;;;18.45;5.50;;;;;;;;;;4993356;28;20419;-77
2023/05/24 02:53:28;;;;;;;13.97;4.70;;;;;;;;;;4994207;28;20181;-80
2023/05/24 02:55:55;;;;;;;16.50;4.63;;;;;;;;;;4994074;28;20178;-79
2023/05/24 02:58:21;;;;;;;16.73;5.30;;;;;;;;;;4993835;28;20230;-79
2023/05/24 03:00:47;;;;;;;16.10;4.60;;;;;;;;;;4993896;28;20277;-79
2023/05/24 03:03:13;;;;;;;14.17;4.77;;;;;;;;;;5004669;28;20212;-79
2023/05/24 03:05:39;;;;;;;16.70;5.07;;;;;;;;;;5013754;28;20213;-79
2023/05/24 03:08:05;;;;;;;16.63;5.07;;;;;;;;;;5013630;28;20181;-79
2023/05/24 03:10:32;;;;;;;17.13;5.07;;;;;;;;;;5020558;22;20236;-77
2023/05/24 03:12:58;;;;;;;14.80;5.10;;;;;;;;;;4996719;28;20181;-77
2023/05/24 03:15:24;;;;;;;16.33;5.73;;;;;;;;;;5013019;28;20189;-77
2023/05/24 03:17:50;;;;;;;11.97;5.00;;;;;;;;;;4996005;28;20257;-77
2023/05/24 03:20:16;;;;;;;18.23;5.60;;;;;;;;;;5012334;28;20200;-77
2023/05/24 03:22:43;;;;;;;13.50;4.73;;;;;;;;;;5010804;28;20174;-77
2023/05/24 03:25:09;;;;;;;15.10;4.90;;;;;;;;;;5011053;28;20244;-83
2023/05/24 03:27:38;;;;;;;15.97;5.20;;;;;;;;;;4996777;28;20184;-83
2023/05/24 03:30:05;;;;;;;13.47;4.97;;;;;;;;;;5012956;28;20180;-83
2023/05/24 03:32:32;;;;;;;16.93;5.13;;;;;;;;;;5012751;28;20209;-83
2023/05/24 03:35:00;;;;;;;18.40;5.23;;;;;;;;;;5013717;28;20185;-83
2023/05/24 03:37:26;;;;;;;14.23;4.57;;;;;;;;;;5013185;28;20213;-83
2023/05/24 03:39:52;;;;;;;14.50;5.07;;;;;;;;;;5012811;28;20212;-83
2023/05/24 03:42:18;;;;;;;18.50;6.22;;;;;;;;;;5012518;28;20418;-83
2023/05/24 03:44:44;;;;;;;17.47;5.53;;;;;;;;;;4996390;28;20220;-83
2023/05/24 03:47:10;;;;;;;15.30;5.73;;;;;;;;;;4996013;28;20407;-83
2023/05/24 03:49:36;;;;;;;19.90;5.57;;;;;;;;;;5012725;28;20424;-83
2023/05/24 03:52:02;;;;;;;17.92;5.97;;;;;;;;;;4996155;28;20407;-83
2023/05/24 03:54:28;;;;;;;18.77;5.85;;;;;;;;;;4996185;28;20485;-83
2023/05/24 03:56:54;;;;;;;17.33;5.95;;;;;;;;;;5011713;28;20439;-83
2023/05/24 03:59:21;;;;;;;12.30;5.35;;;;;;;;;;4996446;28;20454;-90
2023/05/24 04:01:47;;;;;;;9.77;5.07;;;;;;;;;;4997046;28;20240;-90
2023/05/24 04:04:13;;;;;;;16.73;4.90;;;;;;;;;;5016355;28;20209;-90
2023/05/24 04:06:40;;;;;;;18.40;6.15;;;;;;;;;;5023362;28;20456;-90
2023/05/24 04:09:07;;;;;;;15.67;4.90;;;;;;;;;;5001789;28;20185;-90
2023/05/24 04:11:33;;;;;;;19.57;6.30;;;;;;;;;;5015409;28;20450;-89
2023/05/24 04:13:59;;;;;;;20.05;6.93;;;;;;;;;;4983266;28;20429;-89
2023/05/24 04:16:26;;;;;;;18.70;6.30;;;;;;;;;;4996330;28;20427;-79
2023/05/24 04:18:52;;;;;;;19.33;6.23;;;;;;;;;;4996381;28;20189;-79
2023/05/24 04:21:18;;;;;;;20.80;5.43;;;;;;;;;;5014275;28;20220;-79
2023/05/24 04:23:44;;;;;;;13.90;5.43;;;;;;;;;;5000039;28;20326;-78
2023/05/24 04:26:11;;;;;;;15.73;5.80;;;;;;;;;;4999428;28;20197;-79
2023/05/24 04:28:37;;;;;;;17.83;7.00;;;;;;;;;;5016075;28;20449;-79
2023/05/24 04:31:05;;;;;;;19.33;6.20;;;;;;;;;;4992891;28;20312;-79
2023/05/24 04:33:31;;;;;;;20.67;5.70;;;;;;;;;;5013796;28;20208;-77
2023/05/24 04:35:59;;;;;;;16.60;6.03;;;;;;;;;;4997800;28;20181;-77
2023/05/24 04:38:28;;;;;;;19.40;6.93;;;;;;;;;;4998981;28;20410;-77
2023/05/24 04:41:04;;;;;;;16.10;5.90;;;;;;;;;;5011877;28;20182;-77
2023/05/24 04:43:30;;;;;;;24.40;6.23;;;;;;;;;;4996359;28;20182;-77
2023/05/24 04:45:56;;;;;;;19.65;7.43;;;;;;;;;;5002208;28;20455;-77
2023/05/24 04:48:23;;;;;;;20.73;6.67;;;;;;;;;;4999664;28;20184;-79
2023/05/24 04:50:53;;;;;;;19.10;6.37;;;;;;;;;;5015215;28;20177;-79
2023/05/24 04:53:19;;;;;;;23.90;6.57;;;;;;;;;;5015959;28;20177;-79
2023/05/24 04:55:46;;;;;;;24.13;6.17;;;;;;;;;;5015623;28;20173;-79
2023/05/24 04:58:12;;;;;;;23.63;6.70;;;;;;;;;;5016864;28;20174;-79
2023/05/24 05:00:38;;;;;;;19.53;6.40;;;;;;;;;;5016527;28;20177;-79
2023/05/24 05:03:04;;;;;;;22.13;7.30;;;;;;;;;;5015240;28;20178;-79
2023/05/24 05:05:30;;;;;;;19.63;6.77;;;;;;;;;;4998698;28;20217;-84
2023/05/24 05:07:56;;;;;;;23.50;7.17;;;;;;;;;;5013830;28;20235;-85
2023/05/24 05:10:22;;;;;;;21.90;7.83;;;;;;;;;;4998895;28;20186;-85
2023/05/24 05:12:49;;;;;;;25.93;7.13;;;;;;;;;;5015513;28;20196;-84
2023/05/24 05:15:15;;;;;;;22.03;7.00;;;;;;;;;;5015498;28;20208;-84
2023/05/24 05:17:41;;;;;;;21.73;6.80;;;;;;;;;;4998822;28;20243;-85
2023/05/24 05:20:07;;;;;;;20.40;7.13;;;;;;;;;;5016373;28;20269;-84
2023/05/24 05:22:33;;;;;;;21.93;7.30;;;;;;;;;;5015657;28;20186;-85
2023/05/24 05:24:59;;;;;;;21.87;6.70;;;;;;;;;;4998785;28;20220;-84
2023/05/24 05:27:26;;;;;;;18.97;7.03;;;;;;;;;;4995802;28;20178;-84
2023/05/24 05:29:52;;;;;;;19.87;6.53;;;;;;;;;;4996524;28;20170;-85
2023/05/24 05:32:18;;;;;;;21.03;7.07;;;;;;;;;;5013698;28;20245;-84
2023/05/24 05:34:44;;;;;;;22.93;7.70;;;;;;;;;;4998260;28;20457;-85
2023/05/24 05:37:10;;;;;;;22.23;7.80;;;;;;;;;;5014569;28;20411;-84
2023/05/24 05:39:36;;;;;;;30.60;8.20;;;;;;;;;;5014339;28;20477;-77
2023/05/24 05:42:02;;;;;;;25.77;7.68;;;;;;;;;;5014187;28;20412;-77
2023/05/24 05:44:28;;;;;;;26.20;7.73;;;;;;;;;;5013466;28;20497;-77
2023/05/24 05:46:54;;;;;;;23.45;7.53;;;;;;;;;;5013913;28;20399;-77
2023/05/24 05:49:20;;;;;;;22.67;8.10;;;;;;;;;;4997776;28;20423;-77
2023/05/24 05:51:46;;;;;;;23.13;7.67;;;;;;;;;;4997950;28;20465;-78
2023/05/24 05:54:17;;;;;;;23.00;8.20;;;;;;;;;;5013662;28;20466;-77
2023/05/24 05:56:47;;;;;;;24.98;8.38;;;;;;;;;;5014110;28;20457;-84
2023/05/24 05:59:14;;;;;;;20.73;7.65;;;;;;;;;;5014375;28;20451;-83
2023/05/24 06:01:40;;;;;;;26.75;7.78;;;;;;;;;;5013331;28;20469;-84
2023/05/24 06:04:06;;;;;;;21.58;7.65;;;;;;;;;;5013298;28;20485;-84
2023/05/24 06:06:33;;;;;;;22.47;7.80;;;;;;;;;;5011152;28;20431;-85
2023/05/24 06:08:59;;;;;;;24.65;7.85;;;;;;;;;;5026826;28;20402;-84
2023/05/24 06:11:25;;;;;;;25.73;8.15;;;;;;;;;;5032888;28;20425;-84
2023/05/24 06:13:52;;;;;;;23.63;7.45;;;;;;;;;;5034328;28;20401;-80
2023/05/24 06:16:18;;;;;;;23.30;7.43;;;;;;;;;;5006729;28;20424;-79
2023/05/24 06:18:46;;;;;;;25.10;7.65;;;;;;;;;;4994824;28;20412;-79
2023/05/24 06:21:12;;;;;;;24.90;7.25;;;;;;;;;;5009713;28;20420;-79
2023/05/24 06:23:38;;;;;;;22.80;7.03;;;;;;;;;;4996720;28;20447;-80
2023/05/24 06:26:05;;;;;;;22.63;7.00;;;;;;;;;;5011753;28;20414;-80
2023/05/24 06:28:31;;;;;;;18.52;6.78;;;;;;;;;;5012720;28;20407;-80
2023/05/24 06:30:57;;;;;;;24.17;7.30;;;;;;;;;;4996057;28;20442;-79
2023/05/24 06:33:23;;;;;;;23.43;7.40;;;;;;;;;;4996373;28;20415;-79
2023/05/24 06:35:49;;;;;;;21.75;7.18;;;;;;;;;;5012453;28;20407;-79
2023/05/24 06:38:16;;;;;;;20.83;6.70;;;;;;;;;;4996390;28;20426;-79
2023/05/24 06:40:42;;;;;;;22.48;7.78;;;;;;;;;;5011394;28;20461;-78
2023/05/24 06:43:08;;;;;;;24.55;7.18;;;;;;;;;;4988189;28;20435;-79
2023/05/24 06:45:35;;;;;;;23.13;7.20;;;;;;;;;;5005593;28;20451;-80
2023/05/24 06:48:01;;;;;;;20.17;7.47;;;;;;;;;;5003908;28;20422;-89
2023/05/24 06:50:27;;;;;;;22.98;6.97;;;;;;;;;;5004596;28;20437;-77
2023/05/24 06:52:53;;;;;;;20.27;6.78;;;;;;;;;;5005544;28;20415;-78
2023/05/24 06:55:19;;;;;;;20.25;6.85;;;;;;;;;;5003093;28;21853;-79
2023/05/24 06:57:45;;;;;;;21.33;7.30;;;;;;;;;;5004455;28;20423;-84
2023/05/24 07:00:11;;;;;;;20.17;6.80;;;;;;;;;;4987102;28;20493;-80
2023/05/24 07:02:38;;;;;;;21.00;6.88;;;;;;;;;;5006838;28;20473;-79
2023/05/24 07:05:05;;;;;;;20.23;7.15;;;;;;;;;;5009852;28;20467;-90
2023/05/24 07:07:31;;;;;;;22.85;6.80;;;;;;;;;;4989274;28;20438;-89
2023/05/24 07:09:57;;;;;;;25.15;7.38;;;;;;;;;;5008430;28;20425;-90
2023/05/24 07:12:23;;;;;;;23.23;6.82;;;;;;;;;;5007235;28;20442;-84
2023/05/24 07:14:50;;;;;;;20.27;6.63;;;;;;;;;;4996260;28;20415;-85
2023/05/24 07:17:16;;;;;;;22.35;6.90;;;;;;;;;;4996588;28;20422;-84
2023/05/24 07:19:42;;;;;;;21.98;6.53;;;;;;;;;;5000663;28;20422;-77
2023/05/24 07:22:08;;;;;;;18.63;6.47;;;;;;;;;;4995754;28;20439;-77
2023/05/24 07:24:34;;;;;;;14.93;5.35;;;;;;;;;;5013133;28;20439;-78
2023/05/24 07:27:00;;;;;;;20.25;6.90;;;;;;;;;;4985934;28;20428;-78
2023/05/24 07:29:26;;;;;;;24.15;7.13;;;;;;;;;;4984794;28;20422;-76
2023/05/24 07:31:54;;;;;;;20.13;7.00;;;;;;;;;;5007045;28;20430;-77
2023/05/24 07:34:21;;;;;;;19.80;6.82;;;;;;;;;;5013452;28;20414;-77
2023/05/24 07:36:48;;;;;;;21.65;6.78;;;;;;;;;;5014210;28;20419;-77
2023/05/24 07:39:17;;;;;;;18.38;6.40;;;;;;;;;;5005190;28;20410;-77
2023/05/24 07:41:43;;;;;;;17.65;6.10;;;;;;;;;;5000011;28;20431;-78
2023/05/24 07:44:10;;;;;;;17.92;6.22;;;;;;;;;;4999957;28;20489;-78
2023/05/24 07:46:37;;;;;;;20.40;6.45;;;;;;;;;;5000542;28;20419;-78
2023/05/24 07:49:03;;;;;;;21.75;6.35;;;;;;;;;;5015406;28;20457;-77
2023/05/24 07:51:29;;;;;;;21.55;6.10;;;;;;;;;;5016814;28;20453;-83
2023/05/24 07:53:56;;;;;;;17.23;5.93;;;;;;;;;;5016018;28;20505;-85
2023/05/24 07:56:22;;;;;;;19.08;5.88;;;;;;;;;;5013934;28;20415;-85
2023/05/24 07:58:50;;;;;;;16.90;5.63;;;;;;;;;;5015959;28;20485;-85
2023/05/24 08:01:19;;;;;;;19.47;6.03;;;;;;;;;;5000292;28;20420;-85
2023/05/24 08:03:46;;;;;;;20.15;5.90;;;;;;;;;;5015711;28;20413;-85
2023/05/24 08:06:12;;;;;;;18.98;5.80;;;;;;;;;;5015968;28;20422;-85
2023/05/24 08:08:39;;;;;;;17.05;5.75;;;;;;;;;;4999607;28;20407;-77
2023/05/24 08:11:06;;;;;;;21.00;5.77;;;;;;;;;;4999667;28;20486;-78
2023/05/24 08:13:33;;;;;;;16.63;5.80;;;;;;;;;;5016617;28;20400;-78
2023/05/24 08:15:59;;;;;;;17.00;5.45;;;;;;;;;;5015236;28;20422;-78
2023/05/24 08:18:25;;;;;;;18.95;6.18;;;;;;;;;;5014869;28;20423;-78
2023/05/24 08:20:51;;;;;;;17.90;5.80;;;;;;;;;;5015569;28;20399;-77
2023/05/24 08:23:17;;;;;;;18.38;5.57;;;;;;;;;;5015856;28;20412;-77
2023/05/24 08:25:43;;;;;;;17.33;5.80;;;;;;;;;;5015609;28;20455;-86
2023/05/24 08:28:10;;;;;;;18.52;5.22;;;;;;;;;;4999032;28;20422;-85
2023/05/24 08:30:36;;;;;;;17.33;5.47;;;;;;;;;;5011980;28;20408;-86
2023/05/24 08:33:02;;;;;;;16.48;5.03;;;;;;;;;;4995696;28;20471;-85
2023/05/24 08:35:28;;;;;;;18.85;5.68;;;;;;;;;;4995670;28;20408;-85
2023/05/24 08:37:55;;;;;;;18.42;5.40;;;;;;;;;;5013392;28;20419;-86
2023/05/24 08:40:23;;;;;;;18.80;5.60;;;;;;;;;;5015319;28;20418;-85
2023/05/24 08:42:49;;;;;;;16.23;4.95;;;;;;;;;;5015322;28;20426;-79
2023/05/24 08:45:16;;;;;;;13.77;5.30;;;;;;;;;;5016210;28;20435;-80
2023/05/24 08:47:43;;;;;;;14.03;4.77;;;;;;;;;;4997517;28;20470;-79
2023/05/24 08:50:09;;;;;;;17.10;5.23;;;;;;;;;;5014876;28;20498;-80
2023/05/24 08:52:35;;;;;;;15.35;4.97;;;;;;;;;;5015151;28;20434;-79
2023/05/24 08:55:01;;;;;;;13.70;4.73;;;;;;;;;;5014277;28;20434;-81
2023/05/24 08:57:29;;;;;;;14.65;4.78;;;;;;;;;;5014789;28;20481;-79
2023/05/24 08:59:56;;;;;;;12.48;4.20;;;;;;;;;;5016375;28;20406;-79
2023/05/24 09:02:22;;;;;;;14.53;4.90;;;;;;;;;;5014609;28;20451;-78
2023/05/24 09:04:49;;;;;;;13.73;4.65;;;;;;;;;;4988804;28;20459;-79
2023/05/24 09:07:22;;;;;;;14.20;4.40;;;;;;;;;;4991350;28;20510;-78
2023/05/24 09:09:52;;;;;;;14.10;4.72;;;;;;;;;;5015740;28;20449;-78
2023/05/24 09:12:20;;;;;;;12.43;4.37;;;;;;;;;;5007877;28;20447;-79
2023/05/24 09:14:46;;;;;;;13.93;4.50;;;;;;;;;;5012285;28;20505;-78
2023/05/24 09:17:16;;;;;;;14.40;4.35;;;;;;;;;;5015493;28;20454;-78
2023/05/24 09:19:45;;;;;;;12.73;4.63;;;;;;;;;;5018219;28;20413;-78
2023/05/24 09:22:13;;;;;;;11.48;4.13;;;;;;;;;;4998254;28;20499;-78
2023/05/24 09:24:43;;;;;;;12.98;4.30;;;;;;;;;;5032105;28;20455;-78
2023/05/24 09:27:09;;;;;;;13.80;4.28;;;;;;;;;;5014659;28;20428;-78
2023/05/24 09:29:36;;;;;;;12.57;4.43;;;;;;;;;;4995241;28;20496;-78
2023/05/24 09:32:03;;;;;;;14.53;4.70;;;;;;;;;;5008519;28;20415;-91
2023/05/24 09:34:37;;;;;;;12.30;4.40;;;;;;;;;;4999679;28;20424;-92
2023/05/24 09:37:03;;;;;;;12.70;4.37;;;;;;;;;;5014878;28;20228;-92
2023/05/24 09:39:30;;;;;;;12.93;4.60;;;;;;;;;;4997653;28;20485;-90
2023/05/24 09:41:57;;;;;;;14.07;4.43;;;;;;;;;;4997423;28;20193;-92
2023/05/24 09:44:27;;;;;;;12.83;4.67;;;;;;;;;;4998896;28;20209;-91
2023/05/24 09:46:53;;;;;;;13.90;4.33;;;;;;;;;;5004572;28;20202;-91
2023/05/24 09:49:22;;;;;;;11.33;3.97;;;;;;;;;;4998357;28;20181;-79
2023/05/24 09:51:48;;;;;;;11.07;4.30;;;;;;;;;;5014360;28;20176;-79
2023/05/24 09:54:15;;;;;;;11.27;3.87;;;;;;;;;;4979025;28;20182;-79
2023/05/24 09:56:41;;;;;;;13.13;4.47;;;;;;;;;;4997671;28;20265;-78
2023/05/24 09:59:08;;;;;;;14.07;4.43;;;;;;;;;;4986885;28;20210;-79
2023/05/24 10:01:34;;;;;;;11.73;3.73;;;;;;;;;;4994742;28;20206;-79
2023/05/24 10:04:01;;;;;;;12.77;3.73;;;;;;;;;;4995661;28;20205;-79
2023/05/24 10:06:28;;;;;;;10.90;3.93;;;;;;;;;;4992828;28;20216;-80
2023/05/24 10:08:55;;;;;;;9.37;4.00;;;;;;;;;;5006272;28;20177;-80
2023/05/24 10:11:22;;;;;;;12.07;4.23;;;;;;;;;;5014149;28;20229;-80
2023/05/24 10:13:49;;;;;;;12.30;4.27;;;;;;;;;;4996297;28;20185;-79
2023/05/24 10:16:15;;;;;;;11.43;3.87;;;;;;;;;;4995521;28;20198;-80
2023/05/24 10:18:41;;;;;;;12.23;4.40;;;;;;;;;;4993786;28;20404;-80
2023/05/24 10:21:08;;;;;;;12.40;3.80;;;;;;;;;;4978025;28;20178;-80
2023/05/24 10:23:36;;;;;;;16.10;4.50;;;;;;;;;;4996796;28;20189;-86
2023/05/24 10:26:07;;;;;;;14.83;4.37;;;;;;;;;;4998881;28;20271;-86
2023/05/24 10:28:51;;;;;;;14.63;4.40;;;;;;;;;;4993350;28;20420;-86
2023/05/24 10:31:23;;;;;;;12.52;4.43;;;;;;;;;;4993369;28;20444;-86
2023/05/24 10:33:50;;;;;;;12.73;3.90;;;;;;;;;;4997262;28;20188;-86
2023/05/24 10:36:17;;;;;;;12.13;4.30;;;;;;;;;;5010224;28;20462;-87
2023/05/24 10:38:45;;;;;;;10.93;4.10;;;;;;;;;;4985532;28;20190;-79
2023/05/24 10:41:12;;;;;;;8.10;3.60;;;;;;;;;;5014175;28;20177;-79
2023/05/24 10:43:38;;;;;;;10.27;3.70;;;;;;;;;;5013768;28;20208;-79
2023/05/24 10:46:05;;;;;;;10.60;4.13;;;;;;;;;;5013678;28;20422;-78
2023/05/24 10:48:31;;;;;;;7.53;3.80;;;;;;;;;;5010919;28;20174;-78
2023/05/24 10:51:00;;;;;;;11.57;3.83;;;;;;;;;;4989536;28;20178;-78
2023/05/24 10:53:27;;;;;;;10.93;4.17;;;;;;;;;;5025069;28;20185;-79
2023/05/24 10:55:59;;;;;;;9.00;3.33;;;;;;;;;;5014014;28;20195;-91
2023/05/24 10:58:32;;;;;;;10.50;4.13;;;;;;;;;;5007750;28;20407;-92
2023/05/24 11:00:58;;;;;;;8.65;4.20;;;;;;;;;;5001528;28;20508;-91
2023/05/24 11:03:24;;;;;;;12.45;4.80;;;;;;;;;;5016166;28;20471;-91
2023/05/24 11:05:51;;;;;;;9.60;3.97;;;;;;;;;;5010933;28;20492;-92
2023/05/24 11:08:25;;;;;;;10.57;4.15;;;;;;;;;;5013975;28;20490;-92
2023/05/24 11:11:03;;;;;;;9.13;3.88;;;;;;;;;;5003995;28;20432;-91
2023/05/24 11:13:30;;;;;;;11.55;4.35;;;;;;;;;;5012829;28;20437;-91
2023/05/24 11:15:56;;;;;;;9.80;4.03;;;;;;;;;;5016535;28;20421;-89
2023/05/24 11:18:23;;;;;;;11.30;4.25;;;;;;;;;;4989631;28;20440;-91
2023/05/24 11:20:49;;;;;;;10.52;4.10;;;;;;;;;;5011066;28;20431;-91
2023/05/24 11:23:16;;;;;;;10.68;4.22;;;;;;;;;;5010707;28;20437;-91
2023/05/24 11:25:42;;;;;;;8.43;3.80;;;;;;;;;;5011900;28;20442;-89
2023/05/24 11:28:11;;;;;;;9.07;4.00;;;;;;;;;;4996630;28;20173;-91
2023/05/24 11:30:41;;;;;;;10.43;4.00;;;;;;;;;;5006417;28;20433;-91
2023/05/24 11:33:14;;;;;;;10.05;3.92;;;;;;;;;;4994250;28;20444;-91
2023/05/24 11:35:40;;;;;;;7.23;3.50;;;;;;;;;;4995653;28;20185;-92
2023/05/24 11:38:14;;;;;;;9.23;3.60;;;;;;;;;;4981618;28;20186;-89
2023/05/24 11:40:43;;;;;;;8.93;3.60;;;;;;;;;;5012224;28;20189;-91
2023/05/24 11:43:09;;;;;;;10.83;3.70;;;;;;;;;;5013045;28;20204;-90
2023/05/24 11:45:36;;;;;;;7.67;3.10;;;;;;;;;;4996494;28;20213;-86
2023/05/24 11:48:06;;;;;;;9.67;3.50;;;;;;;;;;4996589;28;20181;-86
2023/05/24 11:50:32;;;;;;;7.10;3.33;;;;;;;;;;4995719;28;20427;-85
2023/05/24 11:53:04;;;;;;;9.20;3.40;;;;;;;;;;5012150;28;20185;-86
2023/05/24 11:55:31;;;;;;;8.75;4.00;;;;;;;;;;5011395;28;20419;-86
2023/05/24 11:57:58;;;;;;;9.40;4.18;;;;;;;;;;5009261;28;20431;-85
2023/05/24 12:00:25;;;;;;;9.77;3.50;;;;;;;;;;5011528;28;20181;-86
2023/05/24 12:02:51;;;;;;;6.50;3.27;;;;;;;;;;5012261;28;20174;-81
2023/05/24 12:05:21;;;;;;;10.05;4.00;;;;;;;;;;5011729;28;20454;-80
2023/05/24 12:07:50;;;;;;;10.00;3.97;;;;;;;;;;5011132;28;20502;-80
2023/05/24 12:10:16;;;;;;;9.65;3.80;;;;;;;;;;4996041;28;20431;-80
2023/05/24 12:12:46;;;;;;;8.67;3.50;;;;;;;;;;5007568;28;20204;-79
2023/05/24 12:15:13;;;;;;;8.07;3.30;;;;;;;;;;5013276;28;20193;-80
2023/05/24 12:17:40;;;;;;;7.20;3.20;;;;;;;;;;5012394;28;20185;-80
2023/05/24 12:20:07;;;;;;;7.00;3.37;;;;;;;;;;5011685;28;20417;-80
2023/05/24 12:22:33;;;;;;;6.57;3.20;;;;;;;;;;5011517;28;20177;-80
2023/05/24 12:24:59;;;;;;;11.35;4.00;;;;;;;;;;5014659;28;20435;-80
2023/05/24 12:27:30;;;;;;;6.90;3.20;;;;;;;;;;5015861;28;20184;-80
2023/05/24 12:29:56;;;;;;;9.17;3.63;;;;;;;;;;5016624;28;20173;-79
2023/05/24 12:32:22;;;;;;;9.43;4.00;;;;;;;;;;5005989;28;20236;-84
2023/05/24 12:34:49;;;;;;;9.37;3.67;;;;;;;;;;4996554;28;20206;-80
2023/05/24 12:37:17;;;;;;;5.50;3.03;;;;;;;;;;4996371;28;20213;-79
2023/05/24 12:39:43;;;;;;;8.07;3.67;;;;;;;;;;4995796;28;20435;-80
2023/05/24 12:42:10;;;;;;;9.77;4.00;;;;;;;;;;4996584;28;20452;-79
2023/05/24 12:44:37;;;;;;;11.15;3.90;;;;;;;;;;4998518;28;20496;-79
2023/05/24 12:47:05;;;;;;;7.95;3.50;;;;;;;;;;5013749;28;20418;-79
2023/05/24 12:49:31;;;;;;;9.30;3.67;;;;;;;;;;5013674;28;20433;-80
2023/05/24 12:51:58;;;;;;;7.28;3.83;;;;;;;;;;5014473;28;20418;-86
2023/05/24 12:54:27;;;;;;;6.43;3.30;;;;;;;;;;5015609;28;20412;-88
2023/05/24 12:56:54;;;;;;;6.57;3.42;;;;;;;;;;5031744;28;20405;-88
2023/05/24 12:59:20;;;;;;;7.05;3.72;;;;;;;;;;5032507;28;20410;-87
2023/05/24 13:01:50;;;;;;;9.05;3.70;;;;;;;;;;5014355;28;20418;-88
2023/05/24 13:04:16;;;;;;;7.18;3.30;;;;;;;;;;4995182;28;20439;-89
2023/05/24 13:06:43;;;;;;;8.23;3.80;;;;;;;;;;4995239;28;20427;-88
2023/05/24 13:09:09;;;;;;;7.95;3.60;;;;;;;;;;5014700;28;20501;-89
2023/05/24 13:11:44;;;;;;;8.07;3.90;;;;;;;;;;5042402;22;20517;-88
2023/05/24 13:14:21;;;;;;;6.80;3.50;;;;;;;;;;5023312;28;20444;-86
2023/05/24 13:17:03;;;;;;;8.88;3.78;;;;;;;;;;5034162;28;20424;-87
2023/05/24 13:20:10;;;;;;;;;;;;;;;;;;;;;
2023/05/24 13:29:21;;;;;;;7.75;3.83;;;;;;;;;;4999827;28;20469;-88
2023/05/24 13:42:02;;;;;;;9.10;3.63;;;;;;;;;;4837556;29;20493;-88
2023/05/24 13:45:07;;;;;;;8.47;3.70;;;;;;;;;;4826613;29;20473;-88
2023/05/24 13:54:10;;;;;;;9.35;4.03;;;;;;;;;;4805266;29;20440;-88
2023/05/24 13:57:12;;;;;;;8.57;3.43;;;;;;;;;;4804866;29;20421;-89
2023/05/24 13:59:47;;;;;;;8.93;3.75;;;;;;;;;;4767814;29;20431;-89
2023/05/24 14:02:46;;;;;;;8.20;3.70;;;;;;;;;;4816745;29;20438;-89
2023/05/24 14:09:24;;;;;;;;;;;;;;;;;;;;;
2023/05/24 14:12:36;;;;;;;10.40;4.30;;;;;;;;;;4885799;29;20436;-90
2023/05/24 14:15:43;;;;;;;7.25;4.00;;;;;;;;;;4914570;29;20411;-89
2023/05/24 14:18:19;;;;;;;6.78;3.97;;;;;;;;;;4875440;29;20435;-90
2023/05/24 14:21:17;;;;;;;;;;;;;;;;;;;;;
2023/05/24 14:26:57;;;;;;;8.75;3.85;;;;;;;;;;4880135;29;20544;-87
2023/05/24 14:32:35;;;;;;;6.80;3.50;;;;;;;;;;4897283;29;20459;-87
2023/05/24 14:35:41;;;;;;;8.50;3.73;;;;;;;;;;4892203;29;20430;-88
2023/05/24 14:38:23;;;;;;;8.60;4.10;;;;;;;;;;4878757;29;20427;-88
2023/05/24 14:41:15;;;;;;;9.68;3.80;;;;;;;;;;4912037;29;20413;-88
2023/05/24 14:44:11;;;;;;;11.87;4.10;;;;;;;;;;4918328;29;20421;-89
2023/05/24 14:46:52;;;;;;;9.18;3.95;;;;;;;;;;4911368;29;20506;-88
2023/05/24 14:53:08;;;;;;;9.48;3.80;;;;;;;;;;4934293;29;20409;-88
2023/05/24 14:56:02;;;;;;;11.25;4.07;;;;;;;;;;4981059;28;20415;-88
2023/05/24 15:21:54;;;;;;;9.85;4.25;;;;;;;;;;4951943;29;20495;-86
2023/05/24 15:27:29;;;;;;;8.73;4.00;;;;;;;;;;4900115;29;20417;-86
2023/05/24 15:29:59;;;;;;;11.60;4.45;;;;;;;;;;4915133;29;20465;-87
2023/05/24 15:32:31;;;;;;;11.30;4.30;;;;;;;;;;4933014;29;20460;-87
2023/05/24 15:35:26;;;;;;;8.65;4.32;;;;;;;;;;4933834;29;20501;-87
2023/05/24 15:43:59;;;;;;;10.02;4.25;;;;;;;;;;4932816;29;20448;-86
2023/05/24 15:46:26;;;;;;;9.45;4.10;;;;;;;;;;4934091;29;20513;-87
2023/05/24 15:48:54;;;;;;;9.18;4.43;;;;;;;;;;4945232;28;20448;-85
2023/05/24 15:51:21;;;;;;;8.27;4.50;;;;;;;;;;4991577;28;20424;-84
2023/05/24 15:53:47;;;;;;;11.20;4.28;;;;;;;;;;4992711;28;20413;-83